NZCH/CHC METAR and TAF weather

Enter ICAO airport designator
Station Type Date Time Source
NZCH METAR 2022/06/27 17:00 UTC NOAA

NZCH 271700Z AUTO 21010KT 9999 -RA BKN006/// BKN049/// 07/07 Q1019 TEMPO 6000 RA


Station Type Date Time Source
NZCH Decoded METAR 2022/06/27 17:00 UTC NOAA

Christchurch, New Zealand (NZCH) 43-29S 172-33E 30M
Jun 27, 2022 - 01:00 PM EDT / 2022.06.27 1700 UTC
Wind: from the SSW (210 degrees) at 12 MPH (10 KT):0
Visibility: greater than 7 mile(s):0
Sky conditions: mostly cloudy
Weather: light rain
Temperature: 44 F (7 C)
Dew Point: 44 F (7 C)
Relative Humidity: 100%
Pressure (altimeter): 30.09 in. Hg (1019 hPa)
ob: NZCH 271700Z AUTO 21010KT 9999 -RA BKN006/// BKN049/// 07/07 Q1019 TEMPO 6000 RA
cycle: 17

Station Type Date Time Source
NZCH TAF 2022/06/27 18:04 UTC NOAA

TAF NZCH 271702Z 2718/2818 19012KT 9999 -RA FEW010 BKN020
TEMPO 2718/2800 6000 RA BKN006
TEMPO 2800/2806 6000 RA
BECMG 2806/2808 VRB02KT
TEMPO 2806/2812 BKN010 PROB30 2812/2818 0500 FG BKN001

Example: see airport list